sensor_id;sensor_type;location;lat;lon;timestamp;temperature;humidity
2439;DHT22;14509;47.992;7.848;2023-02-01T00:00:51;11.20;46.70
2439;DHT22;14509;47.992;7.848;2023-02-01T00:02:54;11.10;47.00
2439;DHT22;14509;47.992;7.848;2023-02-01T00:04:57;11.10;46.90
2439;DHT22;14509;47.992;7.848;2023-02-01T00:06:59;11.10;46.80
2439;DHT22;14509;47.992;7.848;2023-02-01T00:09:02;11.10;47.00
2439;DHT22;14509;47.992;7.848;2023-02-01T00:11:06;11.20;46.90
2439;DHT22;14509;47.992;7.848;2023-02-01T00:13:08;11.20;46.90
2439;DHT22;14509;47.992;7.848;2023-02-01T00:15:10;11.60;47.10
2439;DHT22;14509;47.992;7.848;2023-02-01T00:17:12;11.20;46.70
2439;DHT22;14509;47.992;7.848;2023-02-01T00:19:15;11.30;46.70
2439;DHT22;14509;47.992;7.848;2023-02-01T00:21:19;11.20;46.60
2439;DHT22;14509;47.992;7.848;2023-02-01T00:23:22;11.20;46.70
2439;DHT22;14509;47.992;7.848;2023-02-01T00:25:24;11.20;46.70
2439;DHT22;14509;47.992;7.848;2023-02-01T00:27:26;11.30;46.70
2439;DHT22;14509;47.992;7.848;2023-02-01T00:29:27;11.30;46.50
2439;DHT22;14509;47.992;7.848;2023-02-01T00:31:29;11.20;46.30
2439;DHT22;14509;47.992;7.848;2023-02-01T00:33:32;11.30;46.50
2439;DHT22;14509;47.992;7.848;2023-02-01T00:35:36;11.20;46.40
2439;DHT22;14509;47.992;7.848;2023-02-01T00:37:38;11.20;46.30
2439;DHT22;14509;47.992;7.848;2023-02-01T00:39:40;11.30;46.40
2439;DHT22;14509;47.992;7.848;2023-02-01T00:41:43;11.30;46.20
2439;DHT22;14509;47.992;7.848;2023-02-01T00:43:46;11.40;46.10
2439;DHT22;14509;47.992;7.848;2023-02-01T00:45:48;11.30;46.00
2439;DHT22;14509;47.992;7.848;2023-02-01T00:47:49;11.30;46.10
2439;DHT22;14509;47.992;7.848;2023-02-01T00:49:51;11.30;46.20
2439;DHT22;14509;47.992;7.848;2023-02-01T00:51:55;11.30;46.00
2439;DHT22;14509;47.992;7.848;2023-02-01T00:53:57;11.30;46.00
2439;DHT22;14509;47.992;7.848;2023-02-01T00:56:00;11.40;46.70
2439;DHT22;14509;47.992;7.848;2023-02-01T00:58:02;11.40;46.00
2439;DHT22;14509;47.992;7.848;2023-02-01T01:00:04;11.30;45.90
2439;DHT22;14509;47.992;7.848;2023-02-01T01:02:06;11.20;46.00
2439;DHT22;14509;47.992;7.848;2023-02-01T01:04:08;11.20;46.20
2439;DHT22;14509;47.992;7.848;2023-02-01T01:06:13;11.20;46.30
2439;DHT22;14509;47.992;7.848;2023-02-01T01:08:16;11.20;46.10
2439;DHT22;14509;47.992;7.848;2023-02-01T01:10:18;11.10;46.10
2439;DHT22;14509;47.992;7.848;2023-02-01T01:12:20;11.20;46.30
2439;DHT22;14509;47.992;7.848;2023-02-01T01:14:22;11.10;46.00
2439;DHT22;14509;47.992;7.848;2023-02-01T01:16:28;11.10;46.00
2439;DHT22;14509;47.992;7.848;2023-02-01T01:18:31;11.00;46.00
2439;DHT22;14509;47.992;7.848;2023-02-01T01:20:34;11.10;46.00
2439;DHT22;14509;47.992;7.848;2023-02-01T01:22:37;11.10;45.90
2439;DHT22;14509;47.992;7.848;2023-02-01T01:24:40;11.10;45.80
2439;DHT22;14509;47.992;7.848;2023-02-01T01:26:42;11.00;46.00
2439;DHT22;14509;47.992;7.848;2023-02-01T01:28:44;11.00;46.20
2439;DHT22;14509;47.992;7.848;2023-02-01T01:30:46;10.90;46.30
2439;DHT22;14509;47.992;7.848;2023-02-01T01:32:48;10.80;46.50
2439;DHT22;14509;47.992;7.848;2023-02-01T01:34:50;10.80;46.50
2439;DHT22;14509;47.992;7.848;2023-02-01T01:36:52;10.90;46.40
2439;DHT22;14509;47.992;7.848;2023-02-01T01:38:55;10.90;46.40
2439;DHT22;14509;47.992;7.848;2023-02-01T01:40:58;11.00;46.30
2439;DHT22;14509;47.992;7.848;2023-02-01T01:43:00;11.10;46.20
2439;DHT22;14509;47.992;7.848;2023-02-01T01:45:04;11.10;46.00
2439;DHT22;14509;47.992;7.848;2023-02-01T01:47:08;11.10;45.90
2439;DHT22;14509;47.992;7.848;2023-02-01T01:49:13;11.10;45.90
2439;DHT22;14509;47.992;7.848;2023-02-01T01:51:20;11.00;45.90
2439;DHT22;14509;47.992;7.848;2023-02-01T01:53:25;11.10;45.90
2439;DHT22;14509;47.992;7.848;2023-02-01T01:55:30;11.00;45.70
2439;DHT22;14509;47.992;7.848;2023-02-01T01:57:37;11.10;45.60
2439;DHT22;14509;47.992;7.848;2023-02-01T01:59:40;11.10;45.60
2439;DHT22;14509;47.992;7.848;2023-02-01T02:01:45;11.00;45.40
2439;DHT22;14509;47.992;7.848;2023-02-01T02:03:47;11.10;45.40
2439;DHT22;14509;47.992;7.848;2023-02-01T02:05:50;11.10;45.30
2439;DHT22;14509;47.992;7.848;2023-02-01T02:07:58;11.20;45.40
2439;DHT22;14509;47.992;7.848;2023-02-01T02:10:00;11.20;45.20
2439;DHT22;14509;47.992;7.848;2023-02-01T02:12:03;11.30;45.10
2439;DHT22;14509;47.992;7.848;2023-02-01T02:14:09;11.10;45.10
2439;DHT22;14509;47.992;7.848;2023-02-01T02:16:24;11.00;45.40
2439;DHT22;14509;47.992;7.848;2023-02-01T02:18:34;10.90;45.50
2439;DHT22;14509;47.992;7.848;2023-02-01T02:21:08;10.90;45.60
2439;DHT22;14509;47.992;7.848;2023-02-01T02:23:53;10.90;45.80
2439;DHT22;14509;47.992;7.848;2023-02-01T02:26:22;10.90;45.60
2439;DHT22;14509;47.992;7.848;2023-02-01T02:28:42;10.90;45.70
2439;DHT22;14509;47.992;7.848;2023-02-01T02:31:15;11.00;45.60
2439;DHT22;14509;47.992;7.848;2023-02-01T02:33:57;11.00;45.50
2439;DHT22;14509;47.992;7.848;2023-02-01T02:36:03;10.90;45.50
2439;DHT22;14509;47.992;7.848;2023-02-01T02:38:13;10.80;45.60
2439;DHT22;14509;47.992;7.848;2023-02-01T02:40:22;10.90;45.90
2439;DHT22;14509;47.992;7.848;2023-02-01T02:42:31;10.90;45.80
2439;DHT22;14509;47.992;7.848;2023-02-01T02:44:59;11.00;45.80
2439;DHT22;14509;47.992;7.848;2023-02-01T02:47:24;11.00;45.60
2439;DHT22;14509;47.992;7.848;2023-02-01T02:49:34;10.90;45.70
2439;DHT22;14509;47.992;7.848;2023-02-01T02:51:42;11.00;46.00
2439;DHT22;14509;47.992;7.848;2023-02-01T02:54:07;10.90;45.90
2439;DHT22;14509;47.992;7.848;2023-02-01T02:56:27;11.00;45.80
2439;DHT22;14509;47.992;7.848;2023-02-01T02:58:48;10.90;45.80
2439;DHT22;14509;47.992;7.848;2023-02-01T03:01:07;10.90;45.90
2439;DHT22;14509;47.992;7.848;2023-02-01T03:03:27;10.80;45.90
2439;DHT22;14509;47.992;7.848;2023-02-01T03:05:49;10.80;46.20
2439;DHT22;14509;47.992;7.848;2023-02-01T03:08:04;10.90;46.20
2439;DHT22;14509;47.992;7.848;2023-02-01T03:10:09;11.00;46.10
2439;DHT22;14509;47.992;7.848;2023-02-01T03:12:13;11.00;46.00
2439;DHT22;14509;47.992;7.848;2023-02-01T03:14:35;11.00;46.10
2439;DHT22;14509;47.992;7.848;2023-02-01T03:16:42;10.60;46.40
2439;DHT22;14509;47.992;7.848;2023-02-01T03:18:50;10.70;46.70
2439;DHT22;14509;47.992;7.848;2023-02-01T03:20:55;10.80;46.60
2439;DHT22;14509;47.992;7.848;2023-02-01T03:22:59;10.90;46.40
2439;DHT22;14509;47.992;7.848;2023-02-01T03:25:05;10.90;46.30
2439;DHT22;14509;47.992;7.848;2023-02-01T03:27:12;11.00;46.30
2439;DHT22;14509;47.992;7.848;2023-02-01T03:29:19;11.00;46.20
2439;DHT22;14509;47.992;7.848;2023-02-01T03:31:22;11.10;46.20
2439;DHT22;14509;47.992;7.848;2023-02-01T03:33:25;11.00;46.20
2439;DHT22;14509;47.992;7.848;2023-02-01T03:35:33;11.00;46.20
2439;DHT22;14509;47.992;7.848;2023-02-01T03:37:39;10.80;46.50
2439;DHT22;14509;47.992;7.848;2023-02-01T03:39:46;10.80;46.90
2439;DHT22;14509;47.992;7.848;2023-02-01T03:41:52;10.60;47.10
2439;DHT22;14509;47.992;7.848;2023-02-01T03:43:58;10.60;47.40
2439;DHT22;14509;47.992;7.848;2023-02-01T03:46:07;10.50;47.60
2439;DHT22;14509;47.992;7.848;2023-02-01T03:48:13;10.40;47.80
2439;DHT22;14509;47.992;7.848;2023-02-01T03:50:17;10.30;48.10
2439;DHT22;14509;47.992;7.848;2023-02-01T03:52:23;10.30;48.30
2439;DHT22;14509;47.992;7.848;2023-02-01T03:54:29;10.40;48.40
2439;DHT22;14509;47.992;7.848;2023-02-01T03:56:32;10.40;48.30
2439;DHT22;14509;47.992;7.848;2023-02-01T03:58:39;10.50;48.30
2439;DHT22;14509;47.992;7.848;2023-02-01T04:00:44;10.60;48.10
2439;DHT22;14509;47.992;7.848;2023-02-01T04:02:46;10.50;48.10
2439;DHT22;14509;47.992;7.848;2023-02-01T04:04:48;10.40;48.10
2439;DHT22;14509;47.992;7.848;2023-02-01T04:06:52;10.50;48.40
2439;DHT22;14509;47.992;7.848;2023-02-01T04:08:54;10.40;48.40
2439;DHT22;14509;47.992;7.848;2023-02-01T04:10:58;10.30;48.50
2439;DHT22;14509;47.992;7.848;2023-02-01T04:12:59;10.30;49.30
2439;DHT22;14509;47.992;7.848;2023-02-01T04:15:01;10.20;48.90
2439;DHT22;14509;47.992;7.848;2023-02-01T04:17:03;10.20;49.00
2439;DHT22;14509;47.992;7.848;2023-02-01T04:19:05;10.20;49.10
2439;DHT22;14509;47.992;7.848;2023-02-01T04:21:07;10.30;49.00
2439;DHT22;14509;47.992;7.848;2023-02-01T04:23:09;10.40;48.80
2439;DHT22;14509;47.992;7.848;2023-02-01T04:25:11;10.40;48.80
2439;DHT22;14509;47.992;7.848;2023-02-01T04:27:14;10.40;48.70
2439;DHT22;14509;47.992;7.848;2023-02-01T04:29:16;10.40;48.60
2439;DHT22;14509;47.992;7.848;2023-02-01T04:31:18;10.50;48.60
2439;DHT22;14509;47.992;7.848;2023-02-01T04:33:25;10.30;48.60
2439;DHT22;14509;47.992;7.848;2023-02-01T04:35:27;10.30;48.90
2439;DHT22;14509;47.992;7.848;2023-02-01T04:37:29;10.20;49.10
2439;DHT22;14509;47.992;7.848;2023-02-01T04:39:31;10.10;49.20
2439;DHT22;14509;47.992;7.848;2023-02-01T04:41:32;10.10;49.60
2439;DHT22;14509;47.992;7.848;2023-02-01T04:43:36;9.90;50.70
2439;DHT22;14509;47.992;7.848;2023-02-01T04:45:38;9.70;50.80
2439;DHT22;14509;47.992;7.848;2023-02-01T04:47:39;9.60;51.30
2439;DHT22;14509;47.992;7.848;2023-02-01T04:49:41;9.60;51.50
2439;DHT22;14509;47.992;7.848;2023-02-01T04:51:43;9.70;51.50
2439;DHT22;14509;47.992;7.848;2023-02-01T04:53:45;9.70;51.40
2439;DHT22;14509;47.992;7.848;2023-02-01T04:55:48;9.60;51.30
2439;DHT22;14509;47.992;7.848;2023-02-01T04:57:50;9.70;51.30
2439;DHT22;14509;47.992;7.848;2023-02-01T04:59:53;9.80;51.20
2439;DHT22;14509;47.992;7.848;2023-02-01T05:01:55;9.80;51.10
2439;DHT22;14509;47.992;7.848;2023-02-01T05:03:57;9.70;51.10
2439;DHT22;14509;47.992;7.848;2023-02-01T05:05:59;9.80;51.00
2439;DHT22;14509;47.992;7.848;2023-02-01T05:08:01;9.80;50.90
2439;DHT22;14509;47.992;7.848;2023-02-01T05:10:03;9.70;50.90
2439;DHT22;14509;47.992;7.848;2023-02-01T05:12:05;9.70;51.10
2439;DHT22;14509;47.992;7.848;2023-02-01T05:14:25;9.70;51.20
2439;DHT22;14509;47.992;7.848;2023-02-01T05:16:28;9.80;51.10
2439;DHT22;14509;47.992;7.848;2023-02-01T05:18:30;9.80;51.00
2439;DHT22;14509;47.992;7.848;2023-02-01T05:20:31;9.70;51.00
2439;DHT22;14509;47.992;7.848;2023-02-01T05:22:33;9.60;51.30
2439;DHT22;14509;47.992;7.848;2023-02-01T05:24:35;9.60;51.50
2439;DHT22;14509;47.992;7.848;2023-02-01T05:26:37;9.60;51.50
2439;DHT22;14509;47.992;7.848;2023-02-01T05:28:39;9.60;51.50
2439;DHT22;14509;47.992;7.848;2023-02-01T05:30:41;9.40;51.70
2439;DHT22;14509;47.992;7.848;2023-02-01T05:32:44;9.40;52.00
2439;DHT22;14509;47.992;7.848;2023-02-01T05:34:46;9.50;52.00
2439;DHT22;14509;47.992;7.848;2023-02-01T05:36:48;9.60;51.80
2439;DHT22;14509;47.992;7.848;2023-02-01T05:38:50;9.50;51.70
2439;DHT22;14509;47.992;7.848;2023-02-01T05:40:52;10.20;51.80
2439;DHT22;14509;47.992;7.848;2023-02-01T05:42:54;9.30;52.50
2439;DHT22;14509;47.992;7.848;2023-02-01T05:44:55;9.30;52.60
2439;DHT22;14509;47.992;7.848;2023-02-01T05:46:57;9.40;52.60
2439;DHT22;14509;47.992;7.848;2023-02-01T05:49:00;9.50;52.30
2439;DHT22;14509;47.992;7.848;2023-02-01T05:51:02;9.60;51.80
2439;DHT22;14509;47.992;7.848;2023-02-01T05:53:04;9.70;51.60
2439;DHT22;14509;47.992;7.848;2023-02-01T05:55:07;9.70;52.20
2439;DHT22;14509;47.992;7.848;2023-02-01T05:57:09;9.50;52.00
2439;DHT22;14509;47.992;7.848;2023-02-01T05:59:11;9.40;52.10
2439;DHT22;14509;47.992;7.848;2023-02-01T06:01:13;9.50;52.10
2439;DHT22;14509;47.992;7.848;2023-02-01T06:03:15;9.60;51.90
2439;DHT22;14509;47.992;7.848;2023-02-01T06:05:18;9.70;51.70
2439;DHT22;14509;47.992;7.848;2023-02-01T06:07:20;9.80;51.60
2439;DHT22;14509;47.992;7.848;2023-02-01T06:09:22;9.80;51.50
2439;DHT22;14509;47.992;7.848;2023-02-01T06:11:24;9.90;51.30
2439;DHT22;14509;47.992;7.848;2023-02-01T06:13:26;9.90;51.40
2439;DHT22;14509;47.992;7.848;2023-02-01T06:15:28;9.90;51.40
2439;DHT22;14509;47.992;7.848;2023-02-01T06:17:30;10.00;50.40
2439;DHT22;14509;47.992;7.848;2023-02-01T06:19:32;10.00;50.20
2439;DHT22;14509;47.992;7.848;2023-02-01T06:21:36;10.00;50.30
2439;DHT22;14509;47.992;7.848;2023-02-01T06:23:38;9.90;51.20
2439;DHT22;14509;47.992;7.848;2023-02-01T06:25:40;9.90;51.50
2439;DHT22;14509;47.992;7.848;2023-02-01T06:27:42;9.90;51.50
2439;DHT22;14509;47.992;7.848;2023-02-01T06:29:45;9.90;51.50
2439;DHT22;14509;47.992;7.848;2023-02-01T06:31:47;9.90;51.70
2439;DHT22;14509;47.992;7.848;2023-02-01T06:33:49;10.00;50.80
2439;DHT22;14509;47.992;7.848;2023-02-01T06:35:56;10.00;50.60
2439;DHT22;14509;47.992;7.848;2023-02-01T06:38:00;10.00;50.30
2439;DHT22;14509;47.992;7.848;2023-02-01T06:40:02;10.00;50.20
2439;DHT22;14509;47.992;7.848;2023-02-01T06:42:04;10.00;50.30
2439;DHT22;14509;47.992;7.848;2023-02-01T06:44:06;10.00;50.40
2439;DHT22;14509;47.992;7.848;2023-02-01T06:46:11;10.10;50.30
2439;DHT22;14509;47.992;7.848;2023-02-01T06:48:13;10.20;50.20
2439;DHT22;14509;47.992;7.848;2023-02-01T06:50:15;10.20;49.90
2439;DHT22;14509;47.992;7.848;2023-02-01T06:52:17;10.20;49.90
2439;DHT22;14509;47.992;7.848;2023-02-01T06:54:20;10.20;49.90
2439;DHT22;14509;47.992;7.848;2023-02-01T06:56:23;10.20;49.80
2439;DHT22;14509;47.992;7.848;2023-02-01T06:58:28;10.90;50.30
2439;DHT22;14509;47.992;7.848;2023-02-01T07:00:30;10.60;50.00
2439;DHT22;14509;47.992;7.848;2023-02-01T07:02:32;10.00;49.70
2439;DHT22;14509;47.992;7.848;2023-02-01T07:04:34;10.00;50.00
2439;DHT22;14509;47.992;7.848;2023-02-01T07:06:36;10.00;49.80
2439;DHT22;14509;47.992;7.848;2023-02-01T07:08:38;10.20;49.90
2439;DHT22;14509;47.992;7.848;2023-02-01T07:10:41;10.50;49.90
2439;DHT22;14509;47.992;7.848;2023-02-01T07:12:43;10.30;49.50
2439;DHT22;14509;47.992;7.848;2023-02-01T07:14:45;10.40;49.30
2439;DHT22;14509;47.992;7.848;2023-02-01T07:16:47;10.40;49.30
2439;DHT22;14509;47.992;7.848;2023-02-01T07:18:50;10.50;49.20
2439;DHT22;14509;47.992;7.848;2023-02-01T07:20:52;10.50;49.30
2439;DHT22;14509;47.992;7.848;2023-02-01T07:22:55;10.50;49.20
2439;DHT22;14509;47.992;7.848;2023-02-01T07:24:58;10.50;49.10
2439;DHT22;14509;47.992;7.848;2023-02-01T07:27:01;10.60;49.10
2439;DHT22;14509;47.992;7.848;2023-02-01T07:29:03;10.50;49.00
2439;DHT22;14509;47.992;7.848;2023-02-01T07:31:05;10.60;49.10
2439;DHT22;14509;47.992;7.848;2023-02-01T07:33:07;10.40;49.20
2439;DHT22;14509;47.992;7.848;2023-02-01T07:35:09;10.40;49.50
2439;DHT22;14509;47.992;7.848;2023-02-01T07:37:11;10.30;49.70
2439;DHT22;14509;47.992;7.848;2023-02-01T07:39:13;10.40;49.60
2439;DHT22;14509;47.992;7.848;2023-02-01T07:41:15;10.30;49.80
2439;DHT22;14509;47.992;7.848;2023-02-01T07:43:19;10.30;49.90
2439;DHT22;14509;47.992;7.848;2023-02-01T07:45:21;10.30;50.10
2439;DHT22;14509;47.992;7.848;2023-02-01T07:47:23;10.20;50.30
2439;DHT22;14509;47.992;7.848;2023-02-01T07:49:25;10.10;50.70
2439;DHT22;14509;47.992;7.848;2023-02-01T07:51:27;9.90;52.00
2439;DHT22;14509;47.992;7.848;2023-02-01T07:53:30;9.90;52.50
2439;DHT22;14509;47.992;7.848;2023-02-01T07:55:32;9.90;52.60
2439;DHT22;14509;47.992;7.848;2023-02-01T07:57:35;10.10;51.50
2439;DHT22;14509;47.992;7.848;2023-02-01T07:59:38;10.20;51.30
2439;DHT22;14509;47.992;7.848;2023-02-01T08:02:00;10.30;51.00
2439;DHT22;14509;47.992;7.848;2023-02-01T08:04:02;10.30;50.80
2439;DHT22;14509;47.992;7.848;2023-02-01T08:06:04;10.40;50.90
2439;DHT22;14509;47.992;7.848;2023-02-01T08:08:06;10.40;50.80
2439;DHT22;14509;47.992;7.848;2023-02-01T08:10:09;10.50;50.70
2439;DHT22;14509;47.992;7.848;2023-02-01T08:12:12;10.50;50.50
2439;DHT22;14509;47.992;7.848;2023-02-01T08:14:14;10.60;50.20
2439;DHT22;14509;47.992;7.848;2023-02-01T08:16:20;10.80;50.10
2439;DHT22;14509;47.992;7.848;2023-02-01T08:18:22;10.90;49.90
2439;DHT22;14509;47.992;7.848;2023-02-01T08:20:24;11.00;49.60
2439;DHT22;14509;47.992;7.848;2023-02-01T08:22:31;11.20;49.50
2439;DHT22;14509;47.992;7.848;2023-02-01T08:24:33;11.30;49.30
2439;DHT22;14509;47.992;7.848;2023-02-01T08:26:35;11.10;48.80
2439;DHT22;14509;47.992;7.848;2023-02-01T08:28:38;11.50;48.90
2439;DHT22;14509;47.992;7.848;2023-02-01T08:30:40;11.20;48.70
2439;DHT22;14509;47.992;7.848;2023-02-01T08:32:44;11.20;48.70
2439;DHT22;14509;47.992;7.848;2023-02-01T08:34:46;11.10;48.50
2439;DHT22;14509;47.992;7.848;2023-02-01T08:36:49;10.90;49.10
2439;DHT22;14509;47.992;7.848;2023-02-01T08:38:59;10.80;49.40
2439;DHT22;14509;47.992;7.848;2023-02-01T08:41:04;11.40;49.80
2439;DHT22;14509;47.992;7.848;2023-02-01T08:43:07;11.00;49.40
2439;DHT22;14509;47.992;7.848;2023-02-01T08:45:10;10.90;49.30
2439;DHT22;14509;47.992;7.848;2023-02-01T08:47:12;10.90;49.40
2439;DHT22;14509;47.992;7.848;2023-02-01T08:49:15;10.90;49.20
2439;DHT22;14509;47.992;7.848;2023-02-01T08:51:19;10.90;49.20
2439;DHT22;14509;47.992;7.848;2023-02-01T08:53:22;10.90;49.50
2439;DHT22;14509;47.992;7.848;2023-02-01T08:55:24;11.00;49.50
2439;DHT22;14509;47.992;7.848;2023-02-01T08:57:27;11.00;49.40
2439;DHT22;14509;47.992;7.848;2023-02-01T08:59:29;11.00;49.50
2439;DHT22;14509;47.992;7.848;2023-02-01T09:01:31;11.40;49.80
2439;DHT22;14509;47.992;7.848;2023-02-01T09:03:33;11.00;49.40
2439;DHT22;14509;47.992;7.848;2023-02-01T09:05:36;11.00;49.60
2439;DHT22;14509;47.992;7.848;2023-02-01T09:07:39;11.10;49.80
2439;DHT22;14509;47.992;7.848;2023-02-01T09:09:41;11.00;49.50
2439;DHT22;14509;47.992;7.848;2023-02-01T09:11:43;11.00;49.80
2439;DHT22;14509;47.992;7.848;2023-02-01T09:13:45;10.90;49.60
2439;DHT22;14509;47.992;7.848;2023-02-01T09:15:50;10.90;50.00
2439;DHT22;14509;47.992;7.848;2023-02-01T09:17:52;10.90;50.10
2439;DHT22;14509;47.992;7.848;2023-02-01T09:19:54;10.80;50.10
2439;DHT22;14509;47.992;7.848;2023-02-01T09:21:57;10.90;50.30
2439;DHT22;14509;47.992;7.848;2023-02-01T09:23:59;11.00;50.30
2439;DHT22;14509;47.992;7.848;2023-02-01T09:26:02;11.00;50.20
2439;DHT22;14509;47.992;7.848;2023-02-01T09:28:05;11.00;50.40
2439;DHT22;14509;47.992;7.848;2023-02-01T09:30:10;11.00;50.50
2439;DHT22;14509;47.992;7.848;2023-02-01T09:32:12;11.00;51.40
2439;DHT22;14509;47.992;7.848;2023-02-01T09:34:14;11.10;51.50
2439;DHT22;14509;47.992;7.848;2023-02-01T09:36:16;11.20;51.40
2439;DHT22;14509;47.992;7.848;2023-02-01T09:38:21;11.10;51.30
2439;DHT22;14509;47.992;7.848;2023-02-01T09:40:23;11.20;51.40
2439;DHT22;14509;47.992;7.848;2023-02-01T09:42:42;11.20;51.10
2439;DHT22;14509;47.992;7.848;2023-02-01T09:45:10;11.30;50.80
2439;DHT22;14509;47.992;7.848;2023-02-01T09:47:18;11.30;50.60
2439;DHT22;14509;47.992;7.848;2023-02-01T09:49:25;11.20;50.60
2439;DHT22;14509;47.992;7.848;2023-02-01T09:51:32;11.30;50.70
2439;DHT22;14509;47.992;7.848;2023-02-01T09:53:38;11.30;50.60
2439;DHT22;14509;47.992;7.848;2023-02-01T09:55:45;11.30;50.60
2439;DHT22;14509;47.992;7.848;2023-02-01T09:57:52;11.30;50.70
2439;DHT22;14509;47.992;7.848;2023-02-01T10:00:00;11.20;51.00
2439;DHT22;14509;47.992;7.848;2023-02-01T10:02:16;11.20;50.80
2439;DHT22;14509;47.992;7.848;2023-02-01T10:04:19;11.50;50.30
2439;DHT22;14509;47.992;7.848;2023-02-01T10:06:33;11.30;49.80
2439;DHT22;14509;47.992;7.848;2023-02-01T10:08:51;11.40;50.30
2439;DHT22;14509;47.992;7.848;2023-02-01T10:11:04;11.60;50.00
2439;DHT22;14509;47.992;7.848;2023-02-01T10:13:23;11.70;49.80
2439;DHT22;14509;47.992;7.848;2023-02-01T10:15:40;11.80;49.40
2439;DHT22;14509;47.992;7.848;2023-02-01T10:17:54;12.00;49.10
2439;DHT22;14509;47.992;7.848;2023-02-01T10:20:06;12.10;48.80
2439;DHT22;14509;47.992;7.848;2023-02-01T10:22:17;12.20;48.60
2439;DHT22;14509;47.992;7.848;2023-02-01T10:24:44;12.10;48.90
2439;DHT22;14509;47.992;7.848;2023-02-01T10:26:59;12.20;49.10
2439;DHT22;14509;47.992;7.848;2023-02-01T10:29:04;12.30;48.80
2439;DHT22;14509;47.992;7.848;2023-02-01T10:31:13;12.20;48.70
2439;DHT22;14509;47.992;7.848;2023-02-01T10:33:18;12.30;48.80
2439;DHT22;14509;47.992;7.848;2023-02-01T10:35:24;12.40;48.60
2439;DHT22;14509;47.992;7.848;2023-02-01T10:37:29;12.50;48.20
2439;DHT22;14509;47.992;7.848;2023-02-01T10:39:32;12.50;48.30
2439;DHT22;14509;47.992;7.848;2023-02-01T10:41:37;12.40;48.30
2439;DHT22;14509;47.992;7.848;2023-02-01T10:43:41;12.50;48.30
2439;DHT22;14509;47.992;7.848;2023-02-01T10:45:43;12.30;48.10
2439;DHT22;14509;47.992;7.848;2023-02-01T10:47:46;12.20;48.30
2439;DHT22;14509;47.992;7.848;2023-02-01T10:49:54;12.20;49.10
2439;DHT22;14509;47.992;7.848;2023-02-01T10:56:28;12.40;48.10
2439;DHT22;14509;47.992;7.848;2023-02-01T10:58:33;12.20;47.80
2439;DHT22;14509;47.992;7.848;2023-02-01T11:00:47;12.20;48.40
2439;DHT22;14509;47.992;7.848;2023-02-01T11:02:49;12.20;48.20
2439;DHT22;14509;47.992;7.848;2023-02-01T11:04:59;12.10;48.10
2439;DHT22;14509;47.992;7.848;2023-02-01T11:07:12;12.00;48.60
2439;DHT22;14509;47.992;7.848;2023-02-01T11:09:19;12.00;48.60
2439;DHT22;14509;47.992;7.848;2023-02-01T11:11:22;12.10;48.60
2439;DHT22;14509;47.992;7.848;2023-02-01T11:13:28;12.00;48.60
2439;DHT22;14509;47.992;7.848;2023-02-01T11:15:32;12.10;48.50
2439;DHT22;14509;47.992;7.848;2023-02-01T11:17:40;12.20;48.00
2439;DHT22;14509;47.992;7.848;2023-02-01T11:19:44;12.40;47.90
2439;DHT22;14509;47.992;7.848;2023-02-01T11:21:49;12.50;47.60
2439;DHT22;14509;47.992;7.848;2023-02-01T11:23:52;12.70;47.40
2439;DHT22;14509;47.992;7.848;2023-02-01T11:25:56;12.90;46.80
2439;DHT22;14509;47.992;7.848;2023-02-01T11:27:58;13.00;46.30
2439;DHT22;14509;47.992;7.848;2023-02-01T11:30:00;13.10;45.80
2439;DHT22;14509;47.992;7.848;2023-02-01T11:32:05;13.30;45.70
2439;DHT22;14509;47.992;7.848;2023-02-01T11:34:12;13.40;46.00
2439;DHT22;14509;47.992;7.848;2023-02-01T11:36:14;13.50;45.00
2439;DHT22;14509;47.992;7.848;2023-02-01T11:38:21;13.60;44.90
2439;DHT22;14509;47.992;7.848;2023-02-01T11:40:25;13.60;44.30
2439;DHT22;14509;47.992;7.848;2023-02-01T11:42:27;13.50;44.50
2439;DHT22;14509;47.992;7.848;2023-02-01T11:44:31;13.60;44.70
2439;DHT22;14509;47.992;7.848;2023-02-01T11:46:33;13.60;44.50
2439;DHT22;14509;47.992;7.848;2023-02-01T11:48:36;13.70;44.70
2439;DHT22;14509;47.992;7.848;2023-02-01T11:50:41;13.70;44.40
2439;DHT22;14509;47.992;7.848;2023-02-01T11:52:52;13.60;44.00
2439;DHT22;14509;47.992;7.848;2023-02-01T11:55:02;13.60;44.00
2439;DHT22;14509;47.992;7.848;2023-02-01T11:57:12;13.50;44.00
2439;DHT22;14509;47.992;7.848;2023-02-01T11:59:19;13.50;43.90
2439;DHT22;14509;47.992;7.848;2023-02-01T12:01:30;13.40;43.30
2439;DHT22;14509;47.992;7.848;2023-02-01T12:06:04;13.50;42.50
2439;DHT22;14509;47.992;7.848;2023-02-01T12:08:11;13.40;43.00
2439;DHT22;14509;47.992;7.848;2023-02-01T12:10:20;13.40;43.10
2439;DHT22;14509;47.992;7.848;2023-02-01T12:12:25;13.30;42.50
2439;DHT22;14509;47.992;7.848;2023-02-01T12:14:34;13.30;42.90
2439;DHT22;14509;47.992;7.848;2023-02-01T12:16:40;13.30;42.80
2439;DHT22;14509;47.992;7.848;2023-02-01T12:21:06;13.20;42.60
2439;DHT22;14509;47.992;7.848;2023-02-01T12:23:13;13.00;42.80
2439;DHT22;14509;47.992;7.848;2023-02-01T12:25:21;13.00;43.40
2439;DHT22;14509;47.992;7.848;2023-02-01T12:27:34;12.90;43.30
2439;DHT22;14509;47.992;7.848;2023-02-01T12:29:47;12.80;43.60
2439;DHT22;14509;47.992;7.848;2023-02-01T12:31:56;12.70;43.60
2439;DHT22;14509;47.992;7.848;2023-02-01T12:34:05;12.60;43.90
2439;DHT22;14509;47.992;7.848;2023-02-01T12:36:12;12.40;44.50
2439;DHT22;14509;47.992;7.848;2023-02-01T12:38:26;12.40;45.00
2439;DHT22;14509;47.992;7.848;2023-02-01T12:40:35;12.40;45.20
2439;DHT22;14509;47.992;7.848;2023-02-01T12:42:40;12.40;45.30
2439;DHT22;14509;47.992;7.848;2023-02-01T12:44:43;12.40;45.40
2439;DHT22;14509;47.992;7.848;2023-02-01T12:46:50;12.40;45.30
2439;DHT22;14509;47.992;7.848;2023-02-01T12:48:55;12.50;45.40
2439;DHT22;14509;47.992;7.848;2023-02-01T12:50:59;12.40;45.20
2439;DHT22;14509;47.992;7.848;2023-02-01T12:53:08;12.20;45.50
2439;DHT22;14509;47.992;7.848;2023-02-01T12:55:17;12.00;45.70
2439;DHT22;14509;47.992;7.848;2023-02-01T12:57:26;11.90;46.50
2439;DHT22;14509;47.992;7.848;2023-02-01T12:59:33;12.00;46.50
2439;DHT22;14509;47.992;7.848;2023-02-01T13:01:39;11.90;46.50
2439;DHT22;14509;47.992;7.848;2023-02-01T13:03:50;11.90;46.70
2439;DHT22;14509;47.992;7.848;2023-02-01T13:05:59;12.00;46.60
2439;DHT22;14509;47.992;7.848;2023-02-01T13:08:07;12.10;46.30
2439;DHT22;14509;47.992;7.848;2023-02-01T13:10:15;12.20;46.20
2439;DHT22;14509;47.992;7.848;2023-02-01T13:12:21;12.30;45.90
2439;DHT22;14509;47.992;7.848;2023-02-01T13:14:29;12.20;45.50
2439;DHT22;14509;47.992;7.848;2023-02-01T13:16:35;12.20;45.10
2439;DHT22;14509;47.992;7.848;2023-02-01T13:18:42;12.10;45.20
2439;DHT22;14509;47.992;7.848;2023-02-01T13:20:50;12.20;45.40
2439;DHT22;14509;47.992;7.848;2023-02-01T13:22:57;12.30;45.00
2439;DHT22;14509;47.992;7.848;2023-02-01T13:25:03;12.30;44.60
2439;DHT22;14509;47.992;7.848;2023-02-01T13:27:10;12.40;44.50
2439;DHT22;14509;47.992;7.848;2023-02-01T13:29:13;12.50;44.10
2439;DHT22;14509;47.992;7.848;2023-02-01T13:31:38;12.70;44.00
2439;DHT22;14509;47.992;7.848;2023-02-01T13:34:16;12.70;44.00
2439;DHT22;14509;47.992;7.848;2023-02-01T13:36:46;12.70;44.00